sensor_id;sensor_type;location;lat;lon;timestamp;P1;durP1;ratioP1;P2;durP2;ratioP2
12356;SDS011;6243;51.244;6.774;2022-12-10T00:01:37;32.10;;;20.07;;
12356;SDS011;6243;51.244;6.774;2022-12-10T00:04:05;33.87;;;20.33;;
12356;SDS011;6243;51.244;6.774;2022-12-10T00:06:32;34.33;;;20.80;;
12356;SDS011;6243;51.244;6.774;2022-12-10T00:08:58;35.00;;;20.23;;
12356;SDS011;6243;51.244;6.774;2022-12-10T00:11:25;31.90;;;20.43;;
12356;SDS011;6243;51.244;6.774;2022-12-10T00:13:51;33.03;;;20.60;;
12356;SDS011;6243;51.244;6.774;2022-12-10T00:16:20;30.50;;;19.63;;
12356;SDS011;6243;51.244;6.774;2022-12-10T00:18:47;34.07;;;20.97;;
12356;SDS011;6243;51.244;6.774;2022-12-10T00:21:13;32.50;;;21.00;;
12356;SDS011;6243;51.244;6.774;2022-12-10T00:23:41;28.70;;;18.80;;
12356;SDS011;6243;51.244;6.774;2022-12-10T00:26:08;34.17;;;20.87;;
12356;SDS011;6243;51.244;6.774;2022-12-10T00:28:35;30.07;;;19.43;;
12356;SDS011;6243;51.244;6.774;2022-12-10T00:31:02;34.33;;;20.93;;
12356;SDS011;6243;51.244;6.774;2022-12-10T00:33:29;33.07;;;21.20;;
12356;SDS011;6243;51.244;6.774;2022-12-10T00:35:55;28.97;;;18.77;;
12356;SDS011;6243;51.244;6.774;2022-12-10T00:38:20;34.83;;;21.83;;
12356;SDS011;6243;51.244;6.774;2022-12-10T00:40:46;35.10;;;21.17;;
12356;SDS011;6243;51.244;6.774;2022-12-10T00:43:11;35.23;;;20.67;;
12356;SDS011;6243;51.244;6.774;2022-12-10T00:45:37;30.47;;;19.30;;
12356;SDS011;6243;51.244;6.774;2022-12-10T00:48:03;31.63;;;19.43;;
12356;SDS011;6243;51.244;6.774;2022-12-10T00:50:30;33.20;;;20.67;;
12356;SDS011;6243;51.244;6.774;2022-12-10T00:52:55;33.67;;;20.40;;
12356;SDS011;6243;51.244;6.774;2022-12-10T00:55:20;33.80;;;20.97;;
12356;SDS011;6243;51.244;6.774;2022-12-10T00:57:46;33.17;;;21.70;;
12356;SDS011;6243;51.244;6.774;2022-12-10T01:00:12;33.97;;;21.67;;
12356;SDS011;6243;51.244;6.774;2022-12-10T01:02:38;36.90;;;21.73;;
12356;SDS011;6243;51.244;6.774;2022-12-10T01:05:03;34.60;;;22.03;;
12356;SDS011;6243;51.244;6.774;2022-12-10T01:07:30;37.37;;;22.77;;
12356;SDS011;6243;51.244;6.774;2022-12-10T01:09:56;35.97;;;22.73;;
12356;SDS011;6243;51.244;6.774;2022-12-10T01:12:21;38.57;;;24.27;;
12356;SDS011;6243;51.244;6.774;2022-12-10T01:14:47;47.07;;;26.33;;
12356;SDS011;6243;51.244;6.774;2022-12-10T01:17:12;40.63;;;24.03;;
12356;SDS011;6243;51.244;6.774;2022-12-10T01:19:38;48.37;;;25.87;;
12356;SDS011;6243;51.244;6.774;2022-12-10T01:22:03;39.00;;;23.40;;
12356;SDS011;6243;51.244;6.774;2022-12-10T01:24:31;49.10;;;25.83;;
12356;SDS011;6243;51.244;6.774;2022-12-10T01:26:56;41.77;;;23.83;;
12356;SDS011;6243;51.244;6.774;2022-12-10T01:29:22;42.20;;;24.97;;
12356;SDS011;6243;51.244;6.774;2022-12-10T01:31:49;42.63;;;25.23;;
12356;SDS011;6243;51.244;6.774;2022-12-10T01:34:16;38.77;;;23.90;;
12356;SDS011;6243;51.244;6.774;2022-12-10T01:36:42;37.70;;;23.47;;
12356;SDS011;6243;51.244;6.774;2022-12-10T01:39:10;39.40;;;24.33;;
12356;SDS011;6243;51.244;6.774;2022-12-10T01:41:39;33.33;;;21.50;;
12356;SDS011;6243;51.244;6.774;2022-12-10T01:47:05;46.00;;;24.83;;
12356;SDS011;6243;51.244;6.774;2022-12-10T01:49:32;76.23;;;28.40;;
12356;SDS011;6243;51.244;6.774;2022-12-10T01:51:58;51.97;;;25.87;;
12356;SDS011;6243;51.244;6.774;2022-12-10T01:54:25;199.10;;;32.20;;
12356;SDS011;6243;51.244;6.774;2022-12-10T01:56:56;134.30;;;31.77;;
12356;SDS011;6243;51.244;6.774;2022-12-10T01:59:24;114.87;;;31.07;;
12356;SDS011;6243;51.244;6.774;2022-12-10T02:01:51;102.40;;;30.40;;
12356;SDS011;6243;51.244;6.774;2022-12-10T02:04:25;60.93;;;27.77;;
12356;SDS011;6243;51.244;6.774;2022-12-10T02:06:56;53.10;;;28.40;;
12356;SDS011;6243;51.244;6.774;2022-12-10T02:09:25;57.20;;;29.70;;
12356;SDS011;6243;51.244;6.774;2022-12-10T02:12:09;52.87;;;28.77;;
12356;SDS011;6243;51.244;6.774;2022-12-10T02:14:42;66.70;;;30.53;;
12356;SDS011;6243;51.244;6.774;2022-12-10T02:17:15;86.77;;;28.73;;
12356;SDS011;6243;51.244;6.774;2022-12-10T02:19:50;47.50;;;28.43;;
12356;SDS011;6243;51.244;6.774;2022-12-10T02:22:25;103.60;;;28.80;;
12356;SDS011;6243;51.244;6.774;2022-12-10T02:24:55;131.97;;;29.77;;
12356;SDS011;6243;51.244;6.774;2022-12-10T02:27:25;44.37;;;25.90;;
12356;SDS011;6243;51.244;6.774;2022-12-10T02:29:57;51.90;;;25.13;;
12356;SDS011;6243;51.244;6.774;2022-12-10T02:32:25;149.40;;;31.07;;
12356;SDS011;6243;51.244;6.774;2022-12-10T02:34:56;116.30;;;30.67;;
12356;SDS011;6243;51.244;6.774;2022-12-10T02:37:26;111.87;;;32.07;;
12356;SDS011;6243;51.244;6.774;2022-12-10T02:39:56;132.83;;;33.30;;
12356;SDS011;6243;51.244;6.774;2022-12-10T02:42:34;59.93;;;27.97;;
12356;SDS011;6243;51.244;6.774;2022-12-10T02:45:05;52.73;;;27.67;;
12356;SDS011;6243;51.244;6.774;2022-12-10T02:47:33;85.27;;;29.07;;
12356;SDS011;6243;51.244;6.774;2022-12-10T02:49:59;51.27;;;25.57;;
12356;SDS011;6243;51.244;6.774;2022-12-10T02:52:25;56.53;;;25.80;;
12356;SDS011;6243;51.244;6.774;2022-12-10T02:54:51;38.57;;;24.30;;
12356;SDS011;6243;51.244;6.774;2022-12-10T02:57:27;44.20;;;25.47;;
12356;SDS011;6243;51.244;6.774;2022-12-10T03:00:01;37.47;;;23.30;;
12356;SDS011;6243;51.244;6.774;2022-12-10T03:02:36;38.70;;;23.47;;
12356;SDS011;6243;51.244;6.774;2022-12-10T03:05:09;57.77;;;24.43;;
12356;SDS011;6243;51.244;6.774;2022-12-10T03:07:44;55.53;;;23.13;;
12356;SDS011;6243;51.244;6.774;2022-12-10T03:10:14;65.77;;;25.47;;
12356;SDS011;6243;51.244;6.774;2022-12-10T03:12:47;40.13;;;24.77;;
12356;SDS011;6243;51.244;6.774;2022-12-10T03:15:18;50.00;;;25.40;;
12356;SDS011;6243;51.244;6.774;2022-12-10T03:17:46;43.10;;;24.97;;
12356;SDS011;6243;51.244;6.774;2022-12-10T03:20:14;37.97;;;23.43;;
12356;SDS011;6243;51.244;6.774;2022-12-10T03:22:42;38.00;;;23.63;;
12356;SDS011;6243;51.244;6.774;2022-12-10T03:25:12;45.13;;;26.17;;
12356;SDS011;6243;51.244;6.774;2022-12-10T03:27:41;36.47;;;22.40;;
12356;SDS011;6243;51.244;6.774;2022-12-10T03:30:08;41.37;;;24.27;;
12356;SDS011;6243;51.244;6.774;2022-12-10T03:32:36;43.73;;;25.73;;
12356;SDS011;6243;51.244;6.774;2022-12-10T03:35:02;43.93;;;27.33;;
12356;SDS011;6243;51.244;6.774;2022-12-10T03:37:29;38.17;;;24.17;;
12356;SDS011;6243;51.244;6.774;2022-12-10T03:39:55;41.73;;;24.57;;
12356;SDS011;6243;51.244;6.774;2022-12-10T03:42:22;37.33;;;22.57;;
12356;SDS011;6243;51.244;6.774;2022-12-10T03:44:49;36.93;;;23.37;;
12356;SDS011;6243;51.244;6.774;2022-12-10T03:47:15;38.43;;;22.77;;
12356;SDS011;6243;51.244;6.774;2022-12-10T03:49:57;39.13;;;23.37;;
12356;SDS011;6243;51.244;6.774;2022-12-10T03:52:23;33.20;;;20.97;;
12356;SDS011;6243;51.244;6.774;2022-12-10T03:54:48;36.57;;;21.20;;
12356;SDS011;6243;51.244;6.774;2022-12-10T03:57:14;34.27;;;20.77;;
12356;SDS011;6243;51.244;6.774;2022-12-10T03:59:39;33.80;;;20.90;;
12356;SDS011;6243;51.244;6.774;2022-12-10T04:02:05;38.30;;;22.70;;
12356;SDS011;6243;51.244;6.774;2022-12-10T04:04:30;34.83;;;22.57;;
12356;SDS011;6243;51.244;6.774;2022-12-10T04:06:58;32.17;;;20.27;;
12356;SDS011;6243;51.244;6.774;2022-12-10T04:09:23;35.43;;;21.10;;
12356;SDS011;6243;51.244;6.774;2022-12-10T04:11:49;32.43;;;20.00;;
12356;SDS011;6243;51.244;6.774;2022-12-10T04:14:14;33.37;;;20.73;;
12356;SDS011;6243;51.244;6.774;2022-12-10T04:16:40;34.03;;;22.40;;
12356;SDS011;6243;51.244;6.774;2022-12-10T04:19:06;29.83;;;19.37;;
12356;SDS011;6243;51.244;6.774;2022-12-10T04:21:33;31.63;;;20.27;;
12356;SDS011;6243;51.244;6.774;2022-12-10T04:24:02;36.27;;;21.17;;
12356;SDS011;6243;51.244;6.774;2022-12-10T04:26:27;35.63;;;21.40;;
12356;SDS011;6243;51.244;6.774;2022-12-10T04:28:53;32.33;;;20.47;;
12356;SDS011;6243;51.244;6.774;2022-12-10T04:31:18;38.80;;;21.63;;
12356;SDS011;6243;51.244;6.774;2022-12-10T04:33:44;32.90;;;20.23;;
12356;SDS011;6243;51.244;6.774;2022-12-10T04:36:09;33.43;;;22.47;;
12356;SDS011;6243;51.244;6.774;2022-12-10T04:38:35;32.67;;;21.57;;
12356;SDS011;6243;51.244;6.774;2022-12-10T04:41:02;34.97;;;21.87;;
12356;SDS011;6243;51.244;6.774;2022-12-10T04:43:27;33.97;;;21.17;;
12356;SDS011;6243;51.244;6.774;2022-12-10T04:45:55;34.00;;;21.60;;
12356;SDS011;6243;51.244;6.774;2022-12-10T04:48:20;34.27;;;21.23;;
12356;SDS011;6243;51.244;6.774;2022-12-10T04:50:46;34.17;;;21.93;;
12356;SDS011;6243;51.244;6.774;2022-12-10T04:53:11;35.90;;;22.67;;
12356;SDS011;6243;51.244;6.774;2022-12-10T04:55:37;37.17;;;22.80;;
12356;SDS011;6243;51.244;6.774;2022-12-10T04:58:04;34.10;;;21.97;;
12356;SDS011;6243;51.244;6.774;2022-12-10T05:00:29;37.27;;;21.60;;
12356;SDS011;6243;51.244;6.774;2022-12-10T05:02:55;37.13;;;23.40;;
12356;SDS011;6243;51.244;6.774;2022-12-10T05:05:20;37.73;;;22.73;;
12356;SDS011;6243;51.244;6.774;2022-12-10T05:07:46;36.13;;;20.67;;
12356;SDS011;6243;51.244;6.774;2022-12-10T05:10:11;40.33;;;23.53;;
12356;SDS011;6243;51.244;6.774;2022-12-10T05:12:36;42.17;;;23.80;;
12356;SDS011;6243;51.244;6.774;2022-12-10T05:15:04;43.70;;;25.43;;
12356;SDS011;6243;51.244;6.774;2022-12-10T05:17:30;37.40;;;23.13;;
12356;SDS011;6243;51.244;6.774;2022-12-10T05:19:55;39.97;;;23.80;;
12356;SDS011;6243;51.244;6.774;2022-12-10T05:22:21;40.03;;;23.67;;
12356;SDS011;6243;51.244;6.774;2022-12-10T05:24:46;39.63;;;23.10;;
12356;SDS011;6243;51.244;6.774;2022-12-10T05:27:12;41.13;;;23.87;;
12356;SDS011;6243;51.244;6.774;2022-12-10T05:29:37;41.17;;;22.67;;
12356;SDS011;6243;51.244;6.774;2022-12-10T05:32:04;43.37;;;23.40;;
12356;SDS011;6243;51.244;6.774;2022-12-10T05:34:30;43.03;;;24.53;;
12356;SDS011;6243;51.244;6.774;2022-12-10T05:36:56;38.23;;;22.50;;
12356;SDS011;6243;51.244;6.774;2022-12-10T05:39:21;40.43;;;22.73;;
12356;SDS011;6243;51.244;6.774;2022-12-10T05:41:46;39.00;;;22.33;;
12356;SDS011;6243;51.244;6.774;2022-12-10T05:44:12;41.13;;;22.77;;
12356;SDS011;6243;51.244;6.774;2022-12-10T05:46:38;39.30;;;22.57;;
12356;SDS011;6243;51.244;6.774;2022-12-10T05:49:05;38.37;;;22.30;;
12356;SDS011;6243;51.244;6.774;2022-12-10T05:51:32;43.83;;;24.73;;
12356;SDS011;6243;51.244;6.774;2022-12-10T05:53:59;38.80;;;23.37;;
12356;SDS011;6243;51.244;6.774;2022-12-10T05:56:26;40.07;;;23.00;;
12356;SDS011;6243;51.244;6.774;2022-12-10T05:58:52;44.13;;;24.03;;
12356;SDS011;6243;51.244;6.774;2022-12-10T06:01:21;43.73;;;25.57;;
12356;SDS011;6243;51.244;6.774;2022-12-10T06:03:48;41.17;;;23.87;;
12356;SDS011;6243;51.244;6.774;2022-12-10T06:06:19;39.40;;;23.40;;
12356;SDS011;6243;51.244;6.774;2022-12-10T06:08:46;40.07;;;22.73;;
12356;SDS011;6243;51.244;6.774;2022-12-10T06:11:11;41.33;;;23.90;;
12356;SDS011;6243;51.244;6.774;2022-12-10T06:13:37;38.63;;;22.57;;
12356;SDS011;6243;51.244;6.774;2022-12-10T06:16:03;41.07;;;23.40;;
12356;SDS011;6243;51.244;6.774;2022-12-10T06:18:29;41.50;;;24.13;;
12356;SDS011;6243;51.244;6.774;2022-12-10T06:20:55;39.47;;;23.70;;
12356;SDS011;6243;51.244;6.774;2022-12-10T06:23:22;38.03;;;24.07;;
12356;SDS011;6243;51.244;6.774;2022-12-10T06:25:47;41.10;;;24.50;;
12356;SDS011;6243;51.244;6.774;2022-12-10T06:28:13;39.77;;;23.30;;
12356;SDS011;6243;51.244;6.774;2022-12-10T06:30:38;38.33;;;23.37;;
12356;SDS011;6243;51.244;6.774;2022-12-10T06:33:04;41.27;;;24.00;;
12356;SDS011;6243;51.244;6.774;2022-12-10T06:35:29;33.23;;;21.73;;
12356;SDS011;6243;51.244;6.774;2022-12-10T06:37:55;39.67;;;23.53;;
12356;SDS011;6243;51.244;6.774;2022-12-10T06:40:21;45.13;;;24.53;;
12356;SDS011;6243;51.244;6.774;2022-12-10T06:42:47;43.73;;;24.20;;
12356;SDS011;6243;51.244;6.774;2022-12-10T06:45:15;41.80;;;23.63;;
12356;SDS011;6243;51.244;6.774;2022-12-10T06:47:41;42.40;;;23.93;;
12356;SDS011;6243;51.244;6.774;2022-12-10T06:50:06;41.27;;;23.50;;
12356;SDS011;6243;51.244;6.774;2022-12-10T06:52:32;40.00;;;23.30;;
12356;SDS011;6243;51.244;6.774;2022-12-10T06:54:58;40.17;;;24.57;;
12356;SDS011;6243;51.244;6.774;2022-12-10T06:57:25;41.63;;;24.57;;
12356;SDS011;6243;51.244;6.774;2022-12-10T06:59:50;42.87;;;25.13;;
12356;SDS011;6243;51.244;6.774;2022-12-10T07:02:15;43.87;;;25.30;;
12356;SDS011;6243;51.244;6.774;2022-12-10T07:04:41;43.40;;;24.77;;
12356;SDS011;6243;51.244;6.774;2022-12-10T07:07:06;40.60;;;25.10;;
12356;SDS011;6243;51.244;6.774;2022-12-10T07:09:32;39.73;;;23.53;;
12356;SDS011;6243;51.244;6.774;2022-12-10T07:11:58;40.67;;;24.73;;
12356;SDS011;6243;51.244;6.774;2022-12-10T07:14:25;45.03;;;25.13;;
12356;SDS011;6243;51.244;6.774;2022-12-10T07:16:51;42.83;;;24.60;;
12356;SDS011;6243;51.244;6.774;2022-12-10T07:19:16;43.97;;;24.57;;
12356;SDS011;6243;51.244;6.774;2022-12-10T07:21:42;42.47;;;24.27;;
12356;SDS011;6243;51.244;6.774;2022-12-10T07:24:09;42.37;;;24.87;;
12356;SDS011;6243;51.244;6.774;2022-12-10T07:26:37;44.93;;;25.70;;
12356;SDS011;6243;51.244;6.774;2022-12-10T07:29:04;43.27;;;24.33;;
12356;SDS011;6243;51.244;6.774;2022-12-10T07:31:32;48.90;;;26.00;;
12356;SDS011;6243;51.244;6.774;2022-12-10T07:33:58;45.90;;;25.43;;
12356;SDS011;6243;51.244;6.774;2022-12-10T07:36:24;47.10;;;25.67;;
12356;SDS011;6243;51.244;6.774;2022-12-10T07:38:50;44.97;;;24.30;;
12356;SDS011;6243;51.244;6.774;2022-12-10T07:41:16;43.97;;;25.67;;
12356;SDS011;6243;51.244;6.774;2022-12-10T07:43:43;45.03;;;23.80;;
12356;SDS011;6243;51.244;6.774;2022-12-10T07:46:10;43.73;;;23.60;;
12356;SDS011;6243;51.244;6.774;2022-12-10T07:48:38;41.03;;;23.43;;
12356;SDS011;6243;51.244;6.774;2022-12-10T07:51:06;40.07;;;22.47;;
12356;SDS011;6243;51.244;6.774;2022-12-10T07:53:32;43.10;;;22.90;;
12356;SDS011;6243;51.244;6.774;2022-12-10T07:55:58;44.27;;;23.67;;
12356;SDS011;6243;51.244;6.774;2022-12-10T07:58:23;43.20;;;22.80;;
12356;SDS011;6243;51.244;6.774;2022-12-10T08:00:49;39.73;;;22.50;;
12356;SDS011;6243;51.244;6.774;2022-12-10T08:03:14;40.23;;;21.77;;
12356;SDS011;6243;51.244;6.774;2022-12-10T08:05:41;44.77;;;23.77;;
12356;SDS011;6243;51.244;6.774;2022-12-10T08:08:07;43.40;;;23.10;;
12356;SDS011;6243;51.244;6.774;2022-12-10T08:10:33;41.90;;;23.23;;
12356;SDS011;6243;51.244;6.774;2022-12-10T08:12:58;46.77;;;24.03;;
12356;SDS011;6243;51.244;6.774;2022-12-10T08:15:24;49.63;;;25.03;;
12356;SDS011;6243;51.244;6.774;2022-12-10T08:17:50;46.83;;;25.13;;
12356;SDS011;6243;51.244;6.774;2022-12-10T08:20:16;46.10;;;25.00;;
12356;SDS011;6243;51.244;6.774;2022-12-10T08:22:43;44.20;;;24.57;;
12356;SDS011;6243;51.244;6.774;2022-12-10T08:25:08;41.67;;;24.03;;
12356;SDS011;6243;51.244;6.774;2022-12-10T08:27:34;43.23;;;23.43;;
12356;SDS011;6243;51.244;6.774;2022-12-10T08:29:59;44.77;;;24.63;;
12356;SDS011;6243;51.244;6.774;2022-12-10T08:32:25;49.10;;;25.70;;
12356;SDS011;6243;51.244;6.774;2022-12-10T08:34:50;48.40;;;26.33;;
12356;SDS011;6243;51.244;6.774;2022-12-10T08:37:16;43.30;;;22.87;;
12356;SDS011;6243;51.244;6.774;2022-12-10T08:39:42;46.90;;;23.73;;
12356;SDS011;6243;51.244;6.774;2022-12-10T08:42:08;45.13;;;22.50;;
12356;SDS011;6243;51.244;6.774;2022-12-10T08:44:33;47.43;;;25.37;;
12356;SDS011;6243;51.244;6.774;2022-12-10T08:46:59;47.77;;;24.03;;
12356;SDS011;6243;51.244;6.774;2022-12-10T08:49:24;47.57;;;24.60;;
12356;SDS011;6243;51.244;6.774;2022-12-10T08:51:50;48.57;;;24.50;;
12356;SDS011;6243;51.244;6.774;2022-12-10T08:54:15;41.40;;;23.20;;
12356;SDS011;6243;51.244;6.774;2022-12-10T08:56:42;47.03;;;23.43;;
12356;SDS011;6243;51.244;6.774;2022-12-10T08:59:08;49.17;;;24.70;;
12356;SDS011;6243;51.244;6.774;2022-12-10T09:01:33;47.47;;;23.73;;
12356;SDS011;6243;51.244;6.774;2022-12-10T09:03:59;44.83;;;22.83;;
12356;SDS011;6243;51.244;6.774;2022-12-10T09:06:25;48.10;;;23.70;;
12356;SDS011;6243;51.244;6.774;2022-12-10T09:08:50;45.03;;;23.80;;
12356;SDS011;6243;51.244;6.774;2022-12-10T09:11:17;47.47;;;23.53;;
12356;SDS011;6243;51.244;6.774;2022-12-10T09:13:45;49.23;;;25.07;;
12356;SDS011;6243;51.244;6.774;2022-12-10T09:16:11;51.00;;;25.63;;
12356;SDS011;6243;51.244;6.774;2022-12-10T09:18:37;48.13;;;24.83;;
12356;SDS011;6243;51.244;6.774;2022-12-10T09:21:04;50.03;;;26.10;;
12356;SDS011;6243;51.244;6.774;2022-12-10T09:23:30;50.20;;;25.23;;
12356;SDS011;6243;51.244;6.774;2022-12-10T09:25:55;49.57;;;25.37;;
12356;SDS011;6243;51.244;6.774;2022-12-10T09:28:21;53.20;;;27.00;;
12356;SDS011;6243;51.244;6.774;2022-12-10T09:30:55;50.00;;;26.93;;
12356;SDS011;6243;51.244;6.774;2022-12-10T09:33:21;49.60;;;26.23;;
12356;SDS011;6243;51.244;6.774;2022-12-10T09:35:46;47.60;;;24.83;;
12356;SDS011;6243;51.244;6.774;2022-12-10T09:38:11;49.33;;;25.83;;
12356;SDS011;6243;51.244;6.774;2022-12-10T09:40:39;45.97;;;25.23;;
12356;SDS011;6243;51.244;6.774;2022-12-10T09:43:10;45.70;;;25.33;;
12356;SDS011;6243;51.244;6.774;2022-12-10T09:45:43;47.30;;;24.13;;
12356;SDS011;6243;51.244;6.774;2022-12-10T09:48:21;43.53;;;23.83;;
12356;SDS011;6243;51.244;6.774;2022-12-10T09:50:55;42.83;;;23.30;;
12356;SDS011;6243;51.244;6.774;2022-12-10T09:53:26;39.53;;;22.53;;
12356;SDS011;6243;51.244;6.774;2022-12-10T09:55:54;40.80;;;23.57;;
12356;SDS011;6243;51.244;6.774;2022-12-10T09:58:21;45.57;;;24.73;;
12356;SDS011;6243;51.244;6.774;2022-12-10T10:00:50;41.57;;;23.93;;
12356;SDS011;6243;51.244;6.774;2022-12-10T10:03:20;40.20;;;22.20;;
12356;SDS011;6243;51.244;6.774;2022-12-10T10:05:46;34.03;;;21.13;;
12356;SDS011;6243;51.244;6.774;2022-12-10T10:08:15;37.53;;;20.73;;
12356;SDS011;6243;51.244;6.774;2022-12-10T10:10:46;34.73;;;20.57;;
12356;SDS011;6243;51.244;6.774;2022-12-10T10:13:15;34.67;;;20.23;;
12356;SDS011;6243;51.244;6.774;2022-12-10T10:15:46;32.03;;;18.70;;
12356;SDS011;6243;51.244;6.774;2022-12-10T10:18:14;34.03;;;19.67;;
12356;SDS011;6243;51.244;6.774;2022-12-10T10:20:49;32.13;;;18.97;;
12356;SDS011;6243;51.244;6.774;2022-12-10T10:23:15;28.90;;;18.30;;
12356;SDS011;6243;51.244;6.774;2022-12-10T10:25:41;28.10;;;18.13;;
12356;SDS011;6243;51.244;6.774;2022-12-10T10:28:09;30.00;;;19.17;;
12356;SDS011;6243;51.244;6.774;2022-12-10T10:30:36;29.17;;;18.70;;
12356;SDS011;6243;51.244;6.774;2022-12-10T10:33:08;33.23;;;18.83;;
12356;SDS011;6243;51.244;6.774;2022-12-10T10:35:42;29.53;;;18.57;;
12356;SDS011;6243;51.244;6.774;2022-12-10T10:38:15;31.63;;;19.27;;
12356;SDS011;6243;51.244;6.774;2022-12-10T10:40:44;28.83;;;17.90;;
12356;SDS011;6243;51.244;6.774;2022-12-10T10:43:14;28.03;;;18.23;;
12356;SDS011;6243;51.244;6.774;2022-12-10T10:45:47;34.77;;;19.70;;
12356;SDS011;6243;51.244;6.774;2022-12-10T10:48:14;32.90;;;19.17;;
12356;SDS011;6243;51.244;6.774;2022-12-10T10:50:42;29.73;;;18.47;;
12356;SDS011;6243;51.244;6.774;2022-12-10T10:53:26;33.13;;;21.03;;
12356;SDS011;6243;51.244;6.774;2022-12-10T10:55:54;34.97;;;20.70;;
12356;SDS011;6243;51.244;6.774;2022-12-10T10:58:22;30.40;;;18.70;;
12356;SDS011;6243;51.244;6.774;2022-12-10T11:00:59;25.70;;;16.80;;
12356;SDS011;6243;51.244;6.774;2022-12-10T11:03:26;26.43;;;16.47;;
12356;SDS011;6243;51.244;6.774;2022-12-10T11:05:54;27.13;;;15.77;;
12356;SDS011;6243;51.244;6.774;2022-12-10T11:08:23;24.60;;;15.87;;
12356;SDS011;6243;51.244;6.774;2022-12-10T11:10:55;26.10;;;16.57;;
12356;SDS011;6243;51.244;6.774;2022-12-10T11:13:24;26.83;;;17.10;;
12356;SDS011;6243;51.244;6.774;2022-12-10T11:15:55;24.23;;;15.97;;
12356;SDS011;6243;51.244;6.774;2022-12-10T11:18:24;27.77;;;17.77;;
12356;SDS011;6243;51.244;6.774;2022-12-10T11:20:58;26.40;;;16.93;;
12356;SDS011;6243;51.244;6.774;2022-12-10T11:23:28;27.77;;;17.80;;
12356;SDS011;6243;51.244;6.774;2022-12-10T11:25:57;29.57;;;18.27;;
12356;SDS011;6243;51.244;6.774;2022-12-10T11:28:31;29.70;;;18.43;;
12356;SDS011;6243;51.244;6.774;2022-12-10T11:31:12;31.10;;;18.10;;
12356;SDS011;6243;51.244;6.774;2022-12-10T11:33:49;29.50;;;17.10;;
12356;SDS011;6243;51.244;6.774;2022-12-10T11:36:25;28.10;;;16.83;;
12356;SDS011;6243;51.244;6.774;2022-12-10T11:39:02;28.60;;;18.07;;
12356;SDS011;6243;51.244;6.774;2022-12-10T11:41:39;26.77;;;16.47;;
12356;SDS011;6243;51.244;6.774;2022-12-10T11:44:16;28.67;;;17.67;;
12356;SDS011;6243;51.244;6.774;2022-12-10T11:47:10;26.93;;;16.60;;
12356;SDS011;6243;51.244;6.774;2022-12-10T11:49:47;30.13;;;19.00;;
12356;SDS011;6243;51.244;6.774;2022-12-10T11:52:28;31.13;;;18.80;;
12356;SDS011;6243;51.244;6.774;2022-12-10T11:55:07;33.73;;;19.77;;
12356;SDS011;6243;51.244;6.774;2022-12-10T11:57:43;30.27;;;19.57;;
12356;SDS011;6243;51.244;6.774;2022-12-10T12:00:16;25.60;;;17.57;;
12356;SDS011;6243;51.244;6.774;2022-12-10T12:05:37;27.87;;;17.43;;
12356;SDS011;6243;51.244;6.774;2022-12-10T12:08:23;26.10;;;16.87;;
12356;SDS011;6243;51.244;6.774;2022-12-10T12:11:01;28.30;;;17.10;;
12356;SDS011;6243;51.244;6.774;2022-12-10T12:13:51;27.40;;;17.67;;
12356;SDS011;6243;51.244;6.774;2022-12-10T12:16:22;27.03;;;16.60;;
12356;SDS011;6243;51.244;6.774;2022-12-10T12:18:52;29.20;;;18.80;;
12356;SDS011;6243;51.244;6.774;2022-12-10T12:21:22;30.63;;;17.70;;
12356;SDS011;6243;51.244;6.774;2022-12-10T12:23:49;28.57;;;17.73;;
12356;SDS011;6243;51.244;6.774;2022-12-10T12:26:21;27.97;;;17.00;;
12356;SDS011;6243;51.244;6.774;2022-12-10T12:28:53;26.77;;;17.80;;
12356;SDS011;6243;51.244;6.774;2022-12-10T12:31:29;30.47;;;19.30;;
12356;SDS011;6243;51.244;6.774;2022-12-10T12:33:59;27.53;;;16.67;;
12356;SDS011;6243;51.244;6.774;2022-12-10T12:36:29;26.83;;;17.03;;
12356;SDS011;6243;51.244;6.774;2022-12-10T12:38:58;26.97;;;17.77;;
12356;SDS011;6243;51.244;6.774;2022-12-10T12:41:32;28.30;;;18.23;;
12356;SDS011;6243;51.244;6.774;2022-12-10T12:44:07;27.43;;;18.33;;
12356;SDS011;6243;51.244;6.774;2022-12-10T12:46:37;25.20;;;17.03;;
12356;SDS011;6243;51.244;6.774;2022-12-10T12:49:09;26.37;;;16.93;;
12356;SDS011;6243;51.244;6.774;2022-12-10T12:51:40;34.10;;;20.10;;
12356;SDS011;6243;51.244;6.774;2022-12-10T12:54:09;31.07;;;17.50;;
12356;SDS011;6243;51.244;6.774;2022-12-10T12:56:42;31.90;;;18.57;;
12356;SDS011;6243;51.244;6.774;2022-12-10T12:59:26;29.77;;;18.57;;
12356;SDS011;6243;51.244;6.774;2022-12-10T13:02:02;28.97;;;17.83;;
12356;SDS011;6243;51.244;6.774;2022-12-10T13:04:39;29.57;;;17.10;;
12356;SDS011;6243;51.244;6.774;2022-12-10T13:10:07;35.97;;;20.80;;
12356;SDS011;6243;51.244;6.774;2022-12-10T13:12:48;29.93;;;17.97;;
12356;SDS011;6243;51.244;6.774;2022-12-10T13:15:18;28.93;;;18.57;;
12356;SDS011;6243;51.244;6.774;2022-12-10T13:18:02;29.47;;;18.17;;
12356;SDS011;6243;51.244;6.774;2022-12-10T13:20:44;40.57;;;20.43;;
12356;SDS011;6243;51.244;6.774;2022-12-10T13:23:28;31.00;;;19.73;;
12356;SDS011;6243;51.244;6.774;2022-12-10T13:25:56;34.33;;;20.03;;
12356;SDS011;6243;51.244;6.774;2022-12-10T13:28:28;31.43;;;19.93;;
12356;SDS011;6243;51.244;6.774;2022-12-10T13:31:08;33.27;;;19.13;;
12356;SDS011;6243;51.244;6.774;2022-12-10T13:33:47;33.17;;;19.97;;
12356;SDS011;6243;51.244;6.774;2022-12-10T13:36:19;32.70;;;19.80;;
12356;SDS011;6243;51.244;6.774;2022-12-10T13:38:54;28.33;;;17.87;;
12356;SDS011;6243;51.244;6.774;2022-12-10T13:41:22;27.93;;;17.80;;
12356;SDS011;6243;51.244;6.774;2022-12-10T13:43:53;28.67;;;18.53;;
12356;SDS011;6243;51.244;6.774;2022-12-10T13:46:20;29.63;;;19.57;;
12356;SDS011;6243;51.244;6.774;2022-12-10T13:48:47;30.50;;;18.50;;
12356;SDS011;6243;51.244;6.774;2022-12-10T13:51:21;29.33;;;18.70;;
12356;SDS011;6243;51.244;6.774;2022-12-10T13:54:01;29.23;;;18.20;;
12356;SDS011;6243;51.244;6.774;2022-12-10T13:56:47;26.93;;;16.80;;
12356;SDS011;6243;51.244;6.774;2022-12-10T13:59:25;31.80;;;19.77;;
12356;SDS011;6243;51.244;6.774;2022-12-10T14:02:00;32.53;;;19.93;;
12356;SDS011;6243;51.244;6.774;2022-12-10T14:04:45;29.10;;;18.57;;
12356;SDS011;6243;51.244;6.774;2022-12-10T14:07:25;30.50;;;18.60;;
12356;SDS011;6243;51.244;6.774;2022-12-10T14:09:52;30.63;;;17.97;;
12356;SDS011;6243;51.244;6.774;2022-12-10T14:12:22;31.27;;;20.57;;
12356;SDS011;6243;51.244;6.774;2022-12-10T14:14:52;29.77;;;20.20;;
12356;SDS011;6243;51.244;6.774;2022-12-10T14:17:21;31.87;;;20.57;;
12356;SDS011;6243;51.244;6.774;2022-12-10T14:19:54;30.33;;;20.10;;
12356;SDS011;6243;51.244;6.774;2022-12-10T14:22:21;36.27;;;21.33;;
12356;SDS011;6243;51.244;6.774;2022-12-10T14:24:58;33.47;;;19.73;;
12356;SDS011;6243;51.244;6.774;2022-12-10T14:27:26;30.77;;;19.90;;
12356;SDS011;6243;51.244;6.774;2022-12-10T14:29:57;35.40;;;20.83;;
12356;SDS011;6243;51.244;6.774;2022-12-10T14:32:25;33.20;;;19.93;;
12356;SDS011;6243;51.244;6.774;2022-12-10T14:34:55;35.07;;;21.03;;
12356;SDS011;6243;51.244;6.774;2022-12-10T14:37:23;38.07;;;21.43;;
12356;SDS011;6243;51.244;6.774;2022-12-10T14:39:51;36.60;;;21.27;;
12356;SDS011;6243;51.244;6.774;2022-12-10T14:42:17;34.33;;;20.47;;
12356;SDS011;6243;51.244;6.774;2022-12-10T14:44:43;35.47;;;20.73;;
12356;SDS011;6243;51.244;6.774;2022-12-10T14:47:14;34.40;;;20.53;;
12356;SDS011;6243;51.244;6.774;2022-12-10T14:49:42;30.93;;;19.17;;
12356;SDS011;6243;51.244;6.774;2022-12-10T14:52:12;33.60;;;20.07;;